createdAt,value
2019-02-28T00:00:15.999Z,75.22
2019-02-28T00:02:44.497Z,75.04
2019-02-28T00:05:13.035Z,74.03
2019-02-28T00:07:41.601Z,73.84
2019-02-28T00:10:10.520Z,74.42
2019-02-28T00:12:39.010Z,74.08
2019-02-28T00:15:09.328Z,73.75
2019-02-28T00:17:42.735Z,73.17
2019-02-28T00:20:09.156Z,72.62
2019-02-28T00:22:37.789Z,72.32
2019-02-28T00:25:08.501Z,72.96
2019-02-28T00:27:36.995Z,72.50
2019-02-28T00:30:08.833Z,72.20
2019-02-28T00:32:37.338Z,71.81
2019-02-28T00:35:07.344Z,71.04
2019-02-28T00:37:35.837Z,70.70
2019-02-28T00:40:06.709Z,70.65
2019-02-28T00:42:35.362Z,71.03
2019-02-28T00:45:05.397Z,71.01
2019-02-28T00:47:33.891Z,70.48
2019-02-28T00:50:02.365Z,70.08
2019-02-28T00:52:32.057Z,70.32
2019-02-28T00:55:01.260Z,70.55
2019-02-28T00:57:29.710Z,70.49
2019-02-28T00:59:58.176Z,70.82
2019-02-28T01:02:26.671Z,70.76
2019-02-28T01:04:55.133Z,70.73
2019-02-28T01:07:23.628Z,70.82
2019-02-28T01:09:52.103Z,70.91
2019-02-28T01:12:20.593Z,70.92
2019-02-28T01:14:49.064Z,71.33
2019-02-28T01:17:17.565Z,72.00
2019-02-28T01:19:46.037Z,72.06
2019-02-28T01:22:14.544Z,71.82
2019-02-28T01:24:43.018Z,71.62
2019-02-28T01:27:11.514Z,70.99
2019-02-28T01:29:39.981Z,71.23
2019-02-28T01:32:08.477Z,71.11
2019-02-28T01:34:36.948Z,71.78
2019-02-28T01:37:05.445Z,71.36
2019-02-28T01:39:33.921Z,71.54
2019-02-28T01:42:02.419Z,71.87
2019-02-28T01:44:35.605Z,72.17
2019-02-28T01:47:01.111Z,71.76
2019-02-28T01:49:29.583Z,71.08
2019-02-28T01:51:58.087Z,71.14
2019-02-28T01:54:27.626Z,70.69
2019-02-28T01:56:56.937Z,69.83
2019-02-28T01:59:25.409Z,69.69
2019-02-28T02:01:53.908Z,69.46
2019-02-28T02:04:22.383Z,69.18
2019-02-28T02:06:51.318Z,69.56
2019-02-28T02:09:19.861Z,68.92
2019-02-28T02:11:48.356Z,68.75
2019-02-28T02:14:16.825Z,67.47
2019-02-28T02:16:45.325Z,67.80
2019-02-28T02:19:17.490Z,67.50
2019-02-28T02:21:44.005Z,66.76
2019-02-28T02:24:12.501Z,66.38
2019-02-28T02:26:42.354Z,65.61
2019-02-28T02:29:11.193Z,66.00
2019-02-28T02:31:39.739Z,66.36
2019-02-28T02:34:08.233Z,65.52
2019-02-28T02:36:36.706Z,65.14
2019-02-28T02:39:06.444Z,65.48
2019-02-28T02:41:35.032Z,65.15
2019-02-28T02:44:03.693Z,65.06
2019-02-28T02:46:32.171Z,64.93
2019-02-28T02:49:00.672Z,64.00
2019-02-28T02:51:29.153Z,62.83
2019-02-28T02:53:57.645Z,62.23
2019-02-28T02:56:26.121Z,61.94
2019-02-28T02:58:54.616Z,61.70
2019-02-28T03:01:24.359Z,61.37
2019-02-28T03:03:53.061Z,60.11
2019-02-28T03:06:21.537Z,60.10
2019-02-28T03:08:50.052Z,59.80
2019-02-28T03:11:18.511Z,59.83
2019-02-28T03:13:47.012Z,58.45
2019-02-28T03:16:15.483Z,58.62
2019-02-28T03:18:43.982Z,58.66
2019-02-28T03:21:15.231Z,59.03
2019-02-28T03:23:42.677Z,57.86
2019-02-28T03:26:11.149Z,57.97
2019-02-28T03:28:39.638Z,58.90
2019-02-28T03:31:14.156Z,58.62
2019-02-28T03:33:38.338Z,59.76
2019-02-28T03:36:06.811Z,59.46
2019-02-28T03:38:35.304Z,57.29
2019-02-28T03:41:03.774Z,55.32
2019-02-28T03:43:32.329Z,56.09
2019-02-28T03:46:00.809Z,56.60
2019-02-28T03:48:34.675Z,55.23
2019-02-28T03:50:59.482Z,54.94
2019-02-28T03:53:27.985Z,55.45
2019-02-28T03:55:56.453Z,56.52
2019-02-28T03:58:24.943Z,58.69
2019-02-28T04:00:53.409Z,58.26
2019-02-28T04:03:21.908Z,61.11
2019-02-28T04:05:50.375Z,61.79
2019-02-28T04:08:18.894Z,61.13
2019-02-28T04:10:47.356Z,61.45
2019-02-28T04:13:19.141Z,62.15
2019-02-28T04:16:01.534Z,59.79
2019-02-28T04:18:16.260Z,61.72
2019-02-28T04:20:44.738Z,59.61
2019-02-28T04:23:13.234Z,59.11
2019-02-28T04:25:41.707Z,58.49
2019-02-28T04:28:17.314Z,57.90
2019-02-28T04:30:43.721Z,57.90
2019-02-28T04:33:10.630Z,57.55
2019-02-28T04:35:39.171Z,56.46
2019-02-28T04:38:07.671Z,57.62
2019-02-28T04:40:36.137Z,58.05
2019-02-28T04:43:07.254Z,58.64
2019-02-28T04:45:34.823Z,59.46
2019-02-28T04:48:03.314Z,59.40
2019-02-28T04:50:32.282Z,59.47
2019-02-28T04:53:00.755Z,59.02
2019-02-28T04:55:30.618Z,58.50
2019-02-28T04:57:59.184Z,60.38
2019-02-28T05:00:27.685Z,59.80
2019-02-28T05:02:56.162Z,59.83
2019-02-28T05:05:24.656Z,59.64
2019-02-28T05:07:53.128Z,59.79
2019-02-28T05:10:22.274Z,60.36
2019-02-28T05:12:51.377Z,60.24
2019-02-28T05:15:19.875Z,59.50
2019-02-28T05:17:48.351Z,59.91
2019-02-28T05:20:16.863Z,60.09
2019-02-28T05:22:45.328Z,57.70
2019-02-28T05:25:17.555Z,57.74
2019-02-28T05:27:44.024Z,56.98
2019-02-28T05:30:18.056Z,56.62
2019-02-28T05:32:44.802Z,55.57
2019-02-28T05:35:13.367Z,56.87
2019-02-28T05:37:46.700Z,56.62
2019-02-28T05:40:13.802Z,56.88
2019-02-28T05:42:42.291Z,55.10
2019-02-28T05:45:14.466Z,54.55
2019-02-28T05:47:46.288Z,53.34
2019-02-28T05:50:15.580Z,52.69
2019-02-28T05:52:42.669Z,52.22
2019-02-28T05:55:11.612Z,52.31
2019-02-28T05:57:43.393Z,53.79
2019-02-28T06:00:13.573Z,52.67
2019-02-28T06:02:42.051Z,53.65
2019-02-28T06:05:11.847Z,55.49
2019-02-28T06:07:40.752Z,56.37
2019-02-28T06:10:11.089Z,56.11
2019-02-28T06:12:40.540Z,55.11
2019-02-28T06:15:11.983Z,54.58
2019-02-28T06:17:40.452Z,55.19
2019-02-28T06:20:10.599Z,55.39
2019-02-28T06:22:39.077Z,55.53
2019-02-28T06:25:09.340Z,56.84
2019-02-28T06:27:41.647Z,56.64
2019-02-28T06:30:12.969Z,55.55
2019-02-28T06:32:41.445Z,54.24
2019-02-28T06:35:10.086Z,53.64
2019-02-28T06:37:39.207Z,53.34
2019-02-28T06:40:13.350Z,54.39
2019-02-28T06:42:43.439Z,52.96
2019-02-28T06:45:19.049Z,53.73
2019-02-28T06:47:49.595Z,53.65
2019-02-28T06:50:17.809Z,52.74
2019-02-28T06:52:46.283Z,53.29
2019-02-28T06:55:25.388Z,52.77
2019-02-28T06:57:53.856Z,52.92
2019-02-28T07:00:22.425Z,52.31
2019-02-28T07:02:50.900Z,52.43
2019-02-28T07:05:24.622Z,53.55
2019-02-28T07:07:50.058Z,53.80
2019-02-28T07:10:18.948Z,53.39
2019-02-28T07:12:47.421Z,53.79
2019-02-28T07:15:15.999Z,53.48
2019-02-28T07:17:46.520Z,53.51
2019-02-28T07:20:16.042Z,53.31
2019-02-28T07:22:44.597Z,53.57
2019-02-28T07:25:13.874Z,53.67
2019-02-28T07:27:42.498Z,53.58
2019-02-28T07:30:17.333Z,53.67
2019-02-28T07:32:44.164Z,53.60
2019-02-28T07:35:12.740Z,53.70
2019-02-28T07:37:41.220Z,53.91
2019-02-28T07:40:17.543Z,53.98
2019-02-28T07:42:46.225Z,54.56
2019-02-28T07:45:15.366Z,53.97
2019-02-28T07:47:43.979Z,53.77
2019-02-28T07:50:14.590Z,54.31
2019-02-28T07:52:43.061Z,54.22
2019-02-28T07:55:13.701Z,54.05
2019-02-28T07:57:42.184Z,54.88
2019-02-28T08:00:18.190Z,54.56
2019-02-28T08:02:46.202Z,54.80
2019-02-28T08:05:15.136Z,55.29
2019-02-28T08:07:50.196Z,55.25
2019-02-28T08:10:19.255Z,55.75
2019-02-28T08:12:47.734Z,54.92
2019-02-28T08:15:23.582Z,54.96
2019-02-28T08:17:52.301Z,55.24
2019-02-28T08:20:21.345Z,54.70
2019-02-28T08:22:49.827Z,53.83
2019-02-28T08:25:18.332Z,54.01
2019-02-28T08:27:46.946Z,53.25
2019-02-28T08:30:20.880Z,53.97
2019-02-28T08:32:49.598Z,53.99
2019-02-28T08:35:18.122Z,53.81
2019-02-28T08:37:46.588Z,54.50
2019-02-28T08:40:22.983Z,55.15
2019-02-28T08:42:51.460Z,54.82
2019-02-28T08:45:19.974Z,55.42
2019-02-28T08:47:48.530Z,55.90
2019-02-28T08:50:23.629Z,55.37
2019-02-28T08:53:05.652Z,54.90
2019-02-28T08:55:34.162Z,53.75
2019-02-28T08:58:06.070Z,52.43
2019-02-28T09:00:33.424Z,52.30
2019-02-28T09:03:02.014Z,52.46
2019-02-28T09:05:30.532Z,52.43
2019-02-28T09:07:59.139Z,51.65
2019-02-28T09:10:28.076Z,52.59
2019-02-28T09:12:56.563Z,52.63
2019-02-28T09:15:30.147Z,52.66
2019-02-28T09:17:59.359Z,52.16
2019-02-28T09:20:25.822Z,52.00
2019-02-28T09:22:54.311Z,52.32
2019-02-28T09:25:23.961Z,52.27
2019-02-28T09:27:52.585Z,52.01
2019-02-28T09:30:41.619Z,53.11
2019-02-28T09:33:10.212Z,53.72
2019-02-28T09:35:38.680Z,54.93
2019-02-28T09:38:13.014Z,55.09
2019-02-28T09:40:37.392Z,56.55
2019-02-28T09:43:06.016Z,56.19
2019-02-28T09:45:35.002Z,55.93
2019-02-28T09:48:03.548Z,56.87
2019-02-28T09:50:33.163Z,55.80
2019-02-28T09:53:01.894Z,57.50
2019-02-28T09:55:34.262Z,57.97
2019-02-28T09:58:00.674Z,57.48
2019-02-28T10:00:30.248Z,57.84
2019-02-28T10:02:58.723Z,56.71
2019-02-28T10:05:27.222Z,58.51
2019-02-28T10:08:01.690Z,57.86
2019-02-28T10:10:30.301Z,58.25
2019-02-28T10:12:58.777Z,57.21
2019-02-28T10:15:27.428Z,58.70
2019-02-28T10:17:55.954Z,58.60
2019-02-28T10:20:28.418Z,59.09
2019-02-28T10:22:57.163Z,58.37
2019-02-28T10:25:25.713Z,59.24
2019-02-28T10:27:54.831Z,58.16
2019-02-28T10:30:31.624Z,58.39
2019-02-28T10:32:54.991Z,59.54
2019-02-28T10:35:23.474Z,59.33
2019-02-28T10:37:57.454Z,57.90
2019-02-28T10:40:24.963Z,58.91
2019-02-28T10:42:53.807Z,58.41
2019-02-28T10:45:23.096Z,57.62
2019-02-28T10:47:51.608Z,57.76
2019-02-28T10:50:22.429Z,59.03
2019-02-28T10:52:51.003Z,57.53
2019-02-28T10:55:22.403Z,56.35
2019-02-28T10:57:50.187Z,57.89
2019-02-28T11:00:29.282Z,57.47
2019-02-28T11:02:57.781Z,58.09
2019-02-28T11:05:29.087Z,55.98
2019-02-28T11:07:57.735Z,57.69
2019-02-28T11:10:37.994Z,56.89
2019-02-28T11:13:09.555Z,57.47
2019-02-28T11:15:38.176Z,56.66
2019-02-28T11:18:09.559Z,56.00
2019-02-28T11:20:37.747Z,55.34
2019-02-28T11:23:07.652Z,55.96
2019-02-28T11:25:36.516Z,55.24
2019-02-28T11:28:05.261Z,54.86
2019-02-28T11:30:36.053Z,55.95
2019-02-28T11:33:04.855Z,57.41
2019-02-28T11:35:33.481Z,56.00
2019-02-28T11:38:02.115Z,56.03
2019-02-28T11:40:30.844Z,55.15
2019-02-28T11:43:02.754Z,55.44
2019-02-28T11:45:34.209Z,55.35
2019-02-28T11:48:05.358Z,53.17
2019-02-28T11:50:33.912Z,53.15
2019-02-28T11:53:05.708Z,55.19
2019-02-28T11:55:32.622Z,55.32
2019-02-28T11:58:01.569Z,54.69
2019-02-28T12:00:35.916Z,55.56
2019-02-28T12:03:02.955Z,55.84
2019-02-28T12:05:31.505Z,54.92
2019-02-28T12:08:00.014Z,56.32
2019-02-28T12:10:28.497Z,54.29
2019-02-28T12:12:57.000Z,54.34
2019-02-28T12:15:30.771Z,54.86
2019-02-28T12:18:03.495Z,53.40
2019-02-28T12:20:29.557Z,54.89
2019-02-28T12:22:58.071Z,55.95
2019-02-28T12:25:26.892Z,54.51
2019-02-28T12:27:55.471Z,54.29
2019-02-28T12:30:29.052Z,53.20
2019-02-28T12:32:57.564Z,53.02
2019-02-28T12:35:26.042Z,52.93
2019-02-28T12:37:55.016Z,53.63
2019-02-28T12:40:35.264Z,52.03
2019-02-28T12:43:08.807Z,51.80
2019-02-28T12:45:41.276Z,50.15
2019-02-28T12:48:09.862Z,49.38
2019-02-28T12:50:38.405Z,49.74
2019-02-28T12:53:07.253Z,49.81
2019-02-28T12:55:39.022Z,48.45
2019-02-28T12:58:06.907Z,47.50
2019-02-28T13:00:40.682Z,46.57
2019-02-28T13:03:10.219Z,47.35
2019-02-28T13:05:38.771Z,46.37
2019-02-28T13:08:07.287Z,48.29
2019-02-28T13:10:35.999Z,49.38
2019-02-28T13:13:06.794Z,48.58
2019-02-28T13:15:35.022Z,47.33
2019-02-28T13:18:07.163Z,47.15
2019-02-28T13:20:36.489Z,45.53
2019-02-28T13:23:05.347Z,45.85
2019-02-28T13:25:34.011Z,42.16
2019-02-28T13:28:02.512Z,43.07
2019-02-28T13:30:31.138Z,43.56
2019-02-28T13:32:59.814Z,42.69
2019-02-28T13:35:30.704Z,42.70
2019-02-28T13:37:59.291Z,42.86
2019-02-28T13:40:27.771Z,43.00
2019-02-28T13:42:56.296Z,44.73
2019-02-28T13:45:25.496Z,46.59
2019-02-28T13:47:54.005Z,47.50
2019-02-28T13:50:33.160Z,48.81
2019-02-28T13:53:03.441Z,48.41
2019-02-28T13:55:31.999Z,48.29
2019-02-28T13:58:00.660Z,47.19
2019-02-28T14:00:33.816Z,48.59
2019-02-28T14:03:10.487Z,48.04
2019-02-28T14:05:41.296Z,50.76
2019-02-28T14:08:11.243Z,50.55
2019-02-28T14:10:39.662Z,51.39
2019-02-28T14:13:08.375Z,51.19
2019-02-28T14:15:39.336Z,49.96
2019-02-28T14:18:10.945Z,51.57
2019-02-28T14:20:38.560Z,49.62
2019-02-28T14:23:07.142Z,49.56
2019-02-28T14:25:36.377Z,48.80
2019-02-28T14:28:06.097Z,48.74
2019-02-28T14:30:34.651Z,50.89
2019-02-28T14:33:03.226Z,53.02
2019-02-28T14:35:35.184Z,54.22
2019-02-28T14:38:01.930Z,55.43
2019-02-28T14:40:30.418Z,54.50
2019-02-28T14:42:58.998Z,55.71
2019-02-28T14:45:29.520Z,54.79
2019-02-28T14:48:00.865Z,54.99
2019-02-28T14:50:28.229Z,54.19
2019-02-28T14:52:58.086Z,55.25
2019-02-28T14:55:29.377Z,53.74
2019-02-28T14:57:57.247Z,54.32
2019-02-28T15:00:35.342Z,55.47
2019-02-28T15:03:04.214Z,55.63
2019-02-28T15:05:38.137Z,57.05
2019-02-28T15:08:06.793Z,58.05
2019-02-28T15:10:35.414Z,59.18
2019-02-28T15:13:04.936Z,59.88
2019-02-28T15:15:35.919Z,59.41
2019-02-28T15:18:04.190Z,60.00
2019-02-28T15:20:33.162Z,58.95
2019-02-28T15:23:01.862Z,59.21
2019-02-28T15:25:30.981Z,59.54
2019-02-28T15:27:59.662Z,57.99
2019-02-28T15:30:34.838Z,59.49
2019-02-28T15:33:03.672Z,60.58
2019-02-28T15:35:32.135Z,60.80
2019-02-28T15:38:00.730Z,60.49
2019-02-28T15:40:32.049Z,59.59
2019-02-28T15:43:00.564Z,59.94
2019-02-28T15:45:29.179Z,59.64
2019-02-28T15:47:59.130Z,59.69
2019-02-28T15:50:27.886Z,60.96
2019-02-28T15:52:56.504Z,60.51
2019-02-28T15:55:25.548Z,60.41
2019-02-28T15:57:54.094Z,59.99
2019-02-28T16:00:30.512Z,60.48
2019-02-28T16:02:59.128Z,60.80
2019-02-28T16:05:27.774Z,60.27
2019-02-28T16:07:57.298Z,60.60
2019-02-28T16:10:28.575Z,60.84
2019-02-28T16:12:58.717Z,60.57
2019-02-28T16:15:27.451Z,60.64
2019-02-28T16:17:56.016Z,61.50
2019-02-28T16:20:25.106Z,61.90
2019-02-28T16:22:53.659Z,62.31
2019-02-28T16:25:25.020Z,62.27
2019-02-28T16:27:53.496Z,62.49
2019-02-28T16:30:22.347Z,62.63
2019-02-28T16:32:50.860Z,63.17
2019-02-28T16:35:19.439Z,63.77
2019-02-28T16:37:47.934Z,64.82
2019-02-28T16:40:26.181Z,65.65
2019-02-28T16:42:51.730Z,65.44
2019-02-28T16:45:24.929Z,65.75
2019-02-28T16:47:55.688Z,66.99
2019-02-28T16:50:23.645Z,67.14
2019-02-28T16:52:52.321Z,67.11
2019-02-28T16:55:20.830Z,68.00
2019-02-28T16:57:49.313Z,68.06
2019-02-28T17:00:18.336Z,67.92
2019-02-28T17:02:46.955Z,68.14
2019-02-28T17:05:15.535Z,68.45
2019-02-28T17:07:44.567Z,67.90
2019-02-28T17:10:19.006Z,67.89
2019-02-28T17:12:51.962Z,67.48
2019-02-28T17:15:23.276Z,67.57
2019-02-28T17:17:54.211Z,67.46
2019-02-28T17:20:22.720Z,67.95
2019-02-28T17:22:51.203Z,67.64
2019-02-28T17:25:21.832Z,68.02
2019-02-28T17:27:57.277Z,67.70
2019-02-28T17:30:39.188Z,68.58
2019-02-28T17:33:09.091Z,68.57
2019-02-28T17:35:38.295Z,68.95
2019-02-28T17:38:06.846Z,69.22
2019-02-28T17:40:35.424Z,69.76
2019-02-28T17:43:03.901Z,69.47
2019-02-28T17:45:32.482Z,69.72
2019-02-28T17:48:20.420Z,69.93
2019-02-28T17:51:00.545Z,70.48
2019-02-28T17:53:35.018Z,70.41
2019-02-28T17:56:24.524Z,70.79
2019-02-28T17:59:05.289Z,70.80
2019-02-28T18:01:48.429Z,71.13
2019-02-28T18:04:24.110Z,71.26
2019-02-28T18:07:16.568Z,70.90
2019-02-28T18:09:53.980Z,71.38
2019-02-28T18:12:58.356Z,70.90
2019-02-28T18:15:35.795Z,71.17
2019-02-28T18:18:22.407Z,70.97
2019-02-28T18:21:12.583Z,71.02
2019-02-28T18:23:50.035Z,71.56
2019-02-28T18:26:39.284Z,71.54
2019-02-28T18:29:14.874Z,71.69
2019-02-28T18:31:43.360Z,72.17
2019-02-28T18:34:11.991Z,72.25
2019-02-28T18:36:43.377Z,72.43
2019-02-28T18:39:11.637Z,72.82
2019-02-28T18:41:42.156Z,72.98
2019-02-28T18:44:11.093Z,73.37
2019-02-28T18:46:39.590Z,73.39
2019-02-28T18:49:08.075Z,74.02
2019-02-28T18:51:36.581Z,73.84
2019-02-28T18:54:05.303Z,74.24
2019-02-28T18:56:33.816Z,74.55
2019-02-28T18:59:02.358Z,74.67
2019-02-28T19:01:30.915Z,74.76
2019-02-28T19:03:59.424Z,73.74
2019-02-28T19:06:27.973Z,74.17
2019-02-28T19:08:56.480Z,74.23
2019-02-28T19:11:25.062Z,74.41
2019-02-28T19:13:53.563Z,74.30
2019-02-28T19:16:22.068Z,74.29
2019-02-28T19:18:50.547Z,74.54
2019-02-28T19:21:19.057Z,74.40
2019-02-28T19:23:47.540Z,74.09
2019-02-28T19:26:17.521Z,74.11
2019-02-28T19:28:46.004Z,74.06
2019-02-28T19:31:14.515Z,73.63
2019-02-28T19:33:43.064Z,73.62
2019-02-28T19:36:11.579Z,73.69
2019-02-28T19:38:40.058Z,73.59
2019-02-28T19:41:10.208Z,74.11
2019-02-28T19:43:38.691Z,74.99
2019-02-28T19:46:07.296Z,74.69
2019-02-28T19:48:36.439Z,74.66
2019-02-28T19:51:05.194Z,75.79
2019-02-28T19:53:33.678Z,75.15
2019-02-28T19:56:02.189Z,75.42
2019-02-28T19:58:30.728Z,75.74
2019-02-28T20:00:59.697Z,76.01
2019-02-28T20:03:28.173Z,76.30
2019-02-28T20:05:56.706Z,76.76
2019-02-28T20:08:25.180Z,77.40
2019-02-28T20:10:53.772Z,77.54
2019-02-28T20:13:22.250Z,78.07
2019-02-28T20:15:50.837Z,78.66
2019-02-28T20:18:19.378Z,80.04
2019-02-28T20:20:48.662Z,85.66
2019-02-28T20:23:17.158Z,86.32
2019-02-28T20:25:45.627Z,86.01
2019-02-28T20:28:14.214Z,85.55
2019-02-28T20:30:42.773Z,85.20
2019-02-28T20:33:11.362Z,85.58
2019-02-28T20:35:39.909Z,86.20
2019-02-28T20:38:08.422Z,87.80
2019-02-28T20:40:38.334Z,87.28
2019-02-28T20:43:06.845Z,86.05
2019-02-28T20:45:35.327Z,87.66
2019-02-28T20:48:04.357Z,88.18
2019-02-28T20:50:47.578Z,89.01
2019-02-28T20:53:16.097Z,89.45
2019-02-28T20:55:44.594Z,90.64
2019-02-28T20:58:13.118Z,90.74
2019-02-28T21:00:41.667Z,90.39
2019-02-28T21:03:10.191Z,89.83
2019-02-28T21:05:38.742Z,89.91
2019-02-28T21:08:07.262Z,89.75
2019-02-28T21:10:35.736Z,89.71
2019-02-28T21:13:04.321Z,90.47
2019-02-28T21:15:32.802Z,91.56
2019-02-28T21:18:01.325Z,92.07
2019-02-28T21:20:29.825Z,92.31
2019-02-28T21:22:58.332Z,91.57
2019-02-28T21:25:26.834Z,90.76
2019-02-28T21:27:55.331Z,90.88
2019-02-28T21:30:26.033Z,91.69
2019-02-28T21:32:54.804Z,91.87
2019-02-28T21:35:23.723Z,91.37
2019-02-28T21:37:52.382Z,90.44
2019-02-28T21:40:22.067Z,89.29
2019-02-28T21:42:51.671Z,88.65
2019-02-28T21:45:22.438Z,87.73
2019-02-28T21:47:50.986Z,88.02
2019-02-28T21:50:19.531Z,87.80
2019-02-28T21:52:48.233Z,87.55
2019-02-28T21:55:17.976Z,87.30
2019-02-28T21:57:46.871Z,86.86
2019-02-28T22:00:18.400Z,86.48
2019-02-28T22:02:46.918Z,86.87
2019-02-28T22:05:15.540Z,87.54
2019-02-28T22:07:44.606Z,87.59
2019-02-28T22:10:17.318Z,87.13
2019-02-28T22:12:45.876Z,87.07
2019-02-28T22:15:16.414Z,86.90
2019-02-28T22:17:44.912Z,87.40
2019-02-28T22:20:14.944Z,87.31
2019-02-28T22:22:43.457Z,86.96
2019-02-28T22:25:14.320Z,87.43
2019-02-28T22:27:42.981Z,88.27
2019-02-28T22:30:24.692Z,88.22
2019-02-28T22:32:57.771Z,88.47
2019-02-28T22:35:27.896Z,88.17
2019-02-28T22:37:56.410Z,88.51
2019-02-28T22:40:24.896Z,88.03
2019-02-28T22:42:53.408Z,87.46
2019-02-28T22:45:21.893Z,87.96
2019-02-28T22:47:50.410Z,88.01
2019-02-28T22:50:18.901Z,88.02
2019-02-28T22:52:47.942Z,88.22
2019-02-28T22:55:18.989Z,88.28
2019-02-28T22:57:47.490Z,87.54
2019-02-28T23:00:31.872Z,87.78
2019-02-28T23:03:00.470Z,87.52
2019-02-28T23:05:28.936Z,87.24
2019-02-28T23:07:57.484Z,87.86
2019-02-28T23:10:25.935Z,88.18
2019-02-28T23:12:54.577Z,87.92
2019-02-28T23:15:23.060Z,87.21
2019-02-28T23:17:51.566Z,87.45
2019-02-28T23:20:20.048Z,87.42
2019-02-28T23:22:48.555Z,87.47
2019-02-28T23:25:17.034Z,87.63
2019-02-28T23:27:45.544Z,87.76
2019-02-28T23:30:35.043Z,87.99
2019-02-28T23:33:03.693Z,87.71
2019-02-28T23:35:34.307Z,87.28
2019-02-28T23:38:02.812Z,87.00
2019-02-28T23:40:31.330Z,86.69
2019-02-28T23:42:59.794Z,86.74
2019-02-28T23:45:28.276Z,87.28
2019-02-28T23:47:56.788Z,87.37
2019-02-28T23:50:25.270Z,87.12
2019-02-28T23:52:53.778Z,87.08
2019-02-28T23:55:22.263Z,86.66
2019-02-28T23:57:50.750Z,85.71
